Time;durP1;ratioP1;P1;durP2;ratioP2;P2;SDS_P1;SDS_P2;PMS_P1;PMS_P2;Temp;Humidity;BMP_temperature;BMP_pressure;BME280_temperature;BME280_humidity;BME280_pressure;Samples;Min_cycle;Max_cycle;Signal;HPM_P1;HPM_P2
2022/11/19 00:01:06;;;;;;;1.20;1.10;;;;;;;7.92;89.79;94692.66;5049130;28;20735;-81
2022/11/19 00:03:35;;;;;;;1.23;1.00;;;;;;;7.91;89.75;94687.72;5048842;28;20308;-81
2022/11/19 00:06:04;;;;;;;2.37;1.20;;;;;;;7.95;89.54;94688.94;5046563;28;20244;-81
2022/11/19 00:08:31;;;;;;;1.20;1.10;;;;;;;8.05;89.06;94689.47;5049296;28;20197;-81
2022/11/19 00:11:05;;;;;;;1.60;1.10;;;;;;;8.03;89.22;94683.72;5049560;28;20202;-83
2022/11/19 00:13:31;;;;;;;1.00;1.00;;;;;;;7.97;89.31;94679.31;5049826;28;20221;-82
2022/11/19 00:16:02;;;;;;;1.90;1.20;;;;;;;7.98;89.99;94681.69;5047903;28;20351;-81
2022/11/19 00:18:29;;;;;;;1.53;1.20;;;;;;;7.92;90.08;94674.72;5048814;28;20182;-82
2022/11/19 00:20:55;;;;;;;1.83;1.10;;;;;;;7.95;89.93;94676.13;5049171;28;20270;-83
2022/11/19 00:23:22;;;;;;;2.03;1.13;;;;;;;7.95;90.19;94674.38;5048954;28;20222;-82
2022/11/19 00:25:48;;;;;;;3.40;1.20;;;;;;;7.94;90.34;94675.34;5040297;28;20745;-82
2022/11/19 00:28:16;;;;;;;1.33;1.23;;;;;;;7.94;90.63;94674.53;5049807;28;20197;-81
2022/11/19 00:30:42;;;;;;;2.10;1.50;;;;;;;7.96;90.60;94665.69;5052690;28;20194;-83
2022/11/19 00:33:09;;;;;;;1.50;1.40;;;;;;;7.92;90.87;94671.38;5052180;28;20193;-82
2022/11/19 00:35:35;;;;;;;1.77;1.50;;;;;;;7.89;91.07;94672.53;5052680;28;20726;-84
2022/11/19 00:38:02;;;;;;;1.93;1.53;;;;;;;7.90;91.56;94671.53;5051858;28;20209;-81
2022/11/19 00:40:28;;;;;;;4.53;1.60;;;;;;;7.86;91.46;94669.56;5052537;28;20201;-81
2022/11/19 00:45:43;;;;;;;2.03;1.50;;;;;;;7.93;91.12;94678.06;5046863;28;20220;-82
2022/11/19 00:48:09;;;;;;;2.27;1.80;;;;;;;7.97;91.23;94669.84;5052594;28;20201;-82
2022/11/19 00:50:36;;;;;;;2.53;1.80;;;;;;;7.90;91.30;94681.78;5051570;28;20190;-81
2022/11/19 00:53:02;;;;;;;1.97;1.50;;;;;;;7.97;91.13;94680.09;5051513;28;20201;-81
2022/11/19 00:55:29;;;;;;;1.87;1.77;;;;;;;7.87;91.28;94681.38;5052272;28;20197;-82
2022/11/19 00:57:55;;;;;;;2.00;1.70;;;;;;;7.90;91.38;94668.97;5052151;28;20673;-82
2022/11/19 01:00:22;;;;;;;2.47;1.83;;;;;;;7.95;90.95;94673.56;5048188;28;20669;-81
2022/11/19 01:02:50;;;;;;;2.63;1.80;;;;;;;7.96;91.17;94675.94;5044072;28;20298;-82
2022/11/19 01:05:16;;;;;;;3.33;1.90;;;;;;;7.93;91.30;94672.97;5055284;28;20200;-82
2022/11/19 01:07:43;;;;;;;2.10;1.80;;;;;;;7.90;92.00;94673.31;5052386;28;20220;-81
2022/11/19 01:10:09;;;;;;;2.53;1.90;;;;;;;7.93;91.87;94676.31;5052218;28;20585;-82
2022/11/19 01:13:33;;;;;;;2.00;1.80;;;;;;;7.94;91.38;94680.47;5052303;28;20198;-81
2022/11/19 01:15:22;;;;;;;2.00;1.77;;;;;;;8.01;91.05;94675.41;5051113;28;20262;-81
2022/11/19 01:17:50;;;;;;;4.47;2.00;;;;;;;7.98;90.61;94678.34;5051616;28;20205;-82
2022/11/19 01:20:17;;;;;;;3.33;2.10;;;;;;;8.03;90.57;94686.28;5051988;28;20189;-81
2022/11/19 01:22:45;;;;;;;3.67;3.00;;;;;;;7.97;90.58;94682.66;5051691;28;20193;-82
2022/11/19 01:25:13;;;;;;;4.20;1.90;;;;;;;7.93;90.65;94689.13;5051792;28;20201;-80
2022/11/19 01:27:39;;;;;;;2.27;1.80;;;;;;;7.95;90.30;94689.75;5051647;28;20213;-82
2022/11/19 01:30:07;;;;;;;2.77;2.03;;;;;;;7.89;90.38;94690.47;5052101;28;20673;-82
2022/11/19 01:32:33;;;;;;;2.30;2.10;;;;;;;7.92;90.31;94697.78;5051908;28;20193;-81
2022/11/19 01:35:01;;;;;;;2.30;1.90;;;;;;;8.04;89.87;94690.44;5051662;28;20201;-81
2022/11/19 01:37:28;;;;;;;2.47;2.20;;;;;;;7.99;89.20;94685.06;5052319;28;20217;-81
2022/11/19 01:39:54;;;;;;;1.93;1.70;;;;;;;8.05;89.47;94696.34;5050385;28;20193;-82
2022/11/19 01:45:07;;;;;;;2.30;2.10;;;;;;;8.10;89.45;94689.69;5043034;28;20271;-81
2022/11/19 01:47:34;;;;;;;1.87;1.73;;;;;;;8.05;89.35;94689.47;5051281;28;20213;-82
2022/11/19 01:50:02;;;;;;;3.63;2.00;;;;;;;8.08;89.47;94698.56;5051053;28;20204;-83
2022/11/19 01:52:29;;;;;;;3.27;2.10;;;;;;;8.13;89.28;94698.78;5042647;28;20205;-82
2022/11/19 01:54:55;;;;;;;2.47;2.03;;;;;;;8.12;89.31;94697.97;5051064;28;20205;-82
2022/11/19 01:57:22;;;;;;;3.23;2.10;;;;;;;8.19;89.29;94703.97;5040466;28;20232;-81
2022/11/19 01:59:51;;;;;;;2.40;2.20;;;;;;;8.15;89.05;94696.81;5042343;28;20197;-81
2022/11/19 02:02:18;;;;;;;2.17;1.97;;;;;;;8.13;88.70;94703.91;5042598;28;20198;-82
2022/11/19 02:04:45;;;;;;;3.13;2.33;;;;;;;8.13;88.67;94691.88;5050669;28;20248;-82
2022/11/19 02:07:14;;;;;;;2.83;2.60;;;;;;;8.16;88.71;94698.41;5050798;28;20624;-83
2022/11/19 02:09:41;;;;;;;2.67;2.33;;;;;;;8.14;88.45;94700.38;5050421;28;20216;-82
2022/11/19 02:12:22;;;;;;;3.87;2.43;;;;;;;8.02;89.07;94707.75;5050449;28;20198;-81
2022/11/19 02:15:06;;;;;;;2.60;2.40;;;;;;;8.04;89.14;94710.16;5049987;28;20186;-83
2022/11/19 02:17:46;;;;;;;3.83;2.33;;;;;;;8.05;88.95;94709.97;5042569;28;20225;-82
2022/11/19 02:20:47;;;;;;;4.13;2.23;;;;;;;7.96;89.15;94704.16;5050710;28;20194;-82
2022/11/19 02:23:50;;;;;;;4.83;2.33;;;;;;;8.06;89.06;94710.75;5049786;28;20716;-81
2022/11/19 02:27:00;;;;;;;2.57;2.27;;;;;;;8.11;88.96;94703.28;5020510;28;20217;-82
2022/11/19 02:30:06;;;;;;;3.10;2.30;;;;;;;8.19;87.87;94709.09;5049915;28;20212;-82
2022/11/19 02:32:35;;;;;;;2.67;2.20;;;;;;;8.20;88.01;94704.78;5046743;28;20201;-81
2022/11/19 02:35:11;;;;;;;3.10;2.30;;;;;;;8.09;88.08;94716.28;5049802;28;20205;-80
2022/11/19 02:37:44;;;;;;;2.40;2.13;;;;;;;8.13;88.07;94698.78;5050123;28;20217;-82
2022/11/19 02:40:17;;;;;;;2.40;2.00;;;;;;;8.11;88.08;94705.84;5049763;28;20201;-82
2022/11/19 02:42:52;;;;;;;2.87;2.13;;;;;;;8.15;87.47;94700.19;5050017;28;20192;-82
2022/11/19 02:45:26;;;;;;;2.37;2.03;;;;;;;8.16;87.60;94708.66;5049828;28;20683;-83
2022/11/19 02:47:55;;;;;;;3.03;2.20;;;;;;;8.13;87.66;94706.47;5049559;28;20193;-81
2022/11/19 02:50:25;;;;;;;2.57;2.00;;;;;;;8.03;87.87;94708.56;5049886;28;20343;-82
2022/11/19 02:52:51;;;;;;;2.77;1.93;;;;;;;8.02;87.71;94717.22;5049491;28;20218;-82
2022/11/19 02:55:20;;;;;;;3.63;2.00;;;;;;;8.12;87.81;94715.13;5038933;28;20193;-82
2022/11/19 02:57:50;;;;;;;3.57;2.00;;;;;;;8.17;87.77;94717.94;5049044;28;20189;-79
2022/11/19 03:05:58;;;;;;;3.00;2.27;;;;;;;8.24;86.26;94718.81;5049951;28;20232;-82
2022/11/19 03:08:24;;;;;;;3.33;1.70;;;;;;;8.23;86.02;94719.78;5050131;28;20209;-82
2022/11/19 03:11:05;;;;;;;2.70;2.10;;;;;;;8.18;85.66;94728.03;5050134;28;20198;-82
2022/11/19 03:16:41;;;;;;;4.07;1.83;;;;;;;8.12;85.85;94739.00;4974217;28;20223;-82
2022/11/19 03:19:19;;;;;;;2.57;1.87;;;;;;;8.00;86.11;94737.09;5049054;28;20649;-82
2022/11/19 03:21:52;;;;;;;2.80;1.83;;;;;;;8.06;86.53;94741.53;5050057;28;20185;-82
2022/11/19 03:24:23;;;;;;;2.80;1.70;;;;;;;7.89;86.54;94741.72;5049289;28;20206;-82
2022/11/19 03:26:54;;;;;;;2.37;1.90;;;;;;;7.95;86.38;94741.00;5049709;28;20213;-81
2022/11/19 03:29:23;;;;;;;2.10;1.70;;;;;;;7.96;85.74;94736.66;5049533;28;20549;-82
2022/11/19 03:31:55;;;;;;;3.23;2.03;;;;;;;8.03;85.67;94739.31;5049388;28;20572;-83
2022/11/19 03:34:29;;;;;;;3.67;1.70;;;;;;;8.08;85.48;94742.13;5049772;28;20273;-81
2022/11/19 03:37:00;;;;;;;1.97;1.47;;;;;;;8.01;85.39;94743.81;5046761;28;20217;-83
2022/11/19 03:39:27;;;;;;;2.43;1.60;;;;;;;7.96;85.51;94741.78;5049618;28;20200;-82
2022/11/19 03:41:56;;;;;;;1.37;1.27;;;;;;;7.96;85.88;94740.03;5049605;28;20745;-82
2022/11/19 03:44:26;;;;;;;2.07;1.37;;;;;;;8.01;85.24;94748.94;5049378;28;20248;-82
2022/11/19 03:46:58;;;;;;;1.43;1.27;;;;;;;8.09;84.99;94752.19;5049204;28;20310;-82
2022/11/19 03:49:30;;;;;;;1.80;1.30;;;;;;;8.05;84.62;94742.50;5035502;28;20213;-82
2022/11/19 03:52:01;;;;;;;2.37;1.40;;;;;;;7.93;85.20;94745.50;5038952;28;20198;-81
2022/11/19 03:54:28;;;;;;;1.40;1.27;;;;;;;7.95;84.99;94751.25;5046197;28;20185;-82
2022/11/19 03:56:57;;;;;;;1.20;1.10;;;;;;;7.96;84.20;94752.84;5048995;28;20209;-81
2022/11/19 03:59:24;;;;;;;1.53;1.40;;;;;;;7.92;84.58;94746.47;5049279;28;20208;-81
2022/11/19 04:01:52;;;;;;;1.40;1.30;;;;;;;7.92;84.50;94749.03;5049484;28;20202;-83
2022/11/19 04:04:36;;;;;;;1.43;1.30;;;;;;;7.84;84.53;94746.59;5051695;28;20214;-82
2022/11/19 04:07:06;;;;;;;1.23;1.10;;;;;;;7.85;84.36;94744.84;5052948;28;20217;-82
2022/11/19 04:09:33;;;;;;;1.40;1.20;;;;;;;7.88;84.68;94747.84;5052716;28;20194;-82
2022/11/19 04:11:59;;;;;;;1.30;1.20;;;;;;;7.86;84.13;94747.22;5053084;28;20201;-81
2022/11/19 04:14:26;;;;;;;1.33;1.10;;;;;;;7.89;84.66;94749.41;5051874;28;20216;-82
2022/11/19 04:16:52;;;;;;;1.50;1.20;;;;;;;7.91;84.38;94752.59;5052906;28;20218;-81
2022/11/19 04:19:19;;;;;;;3.30;1.20;;;;;;;7.90;84.22;94758.69;5052640;28;20700;-82
2022/11/19 04:21:45;;;;;;;1.30;1.10;;;;;;;7.96;84.02;94754.59;5053509;28;20228;-83
2022/11/19 04:24:13;;;;;;;1.63;1.00;;;;;;;7.93;84.05;94755.75;5052678;28;20240;-81
2022/11/19 04:26:39;;;;;;;1.27;1.17;;;;;;;7.92;84.10;94753.38;5046171;28;20217;-81
2022/11/19 04:29:06;;;;;;;1.20;1.10;;;;;;;7.96;84.21;94752.84;5054687;28;20201;-82
2022/11/19 04:31:32;;;;;;;3.27;1.30;;;;;;;7.91;84.50;94759.47;5053438;28;20190;-82
2022/11/19 04:33:59;;;;;;;1.30;1.10;;;;;;;7.77;84.92;94753.41;5053790;28;20193;-82
2022/11/19 04:36:25;;;;;;;1.50;1.27;;;;;;;7.71;85.58;94763.56;5053332;28;20217;-82
2022/11/19 04:38:52;;;;;;;3.03;1.30;;;;;;;7.83;85.69;94759.59;5053052;28;20197;-82
2022/11/19 04:41:19;;;;;;;0.90;0.90;;;;;;;7.85;85.47;94757.66;5053237;28;20649;-81
2022/11/19 04:43:46;;;;;;;1.83;1.20;;;;;;;7.81;85.38;94756.41;5053099;28;20588;-83
2022/11/19 04:46:12;;;;;;;2.30;1.33;;;;;;;7.80;86.19;94747.13;5047519;28;20226;-82
2022/11/19 04:48:39;;;;;;;1.30;1.20;;;;;;;7.77;85.98;94755.19;5049018;28;20209;-82
2022/11/19 04:51:05;;;;;;;1.83;1.40;;;;;;;7.82;85.97;94752.88;5052894;28;20193;-83
2022/11/19 04:53:32;;;;;;;1.20;1.10;;;;;;;7.76;86.05;94754.38;5052006;28;20220;-82
2022/11/19 04:55:58;;;;;;;2.23;1.20;;;;;;;7.82;86.18;94761.38;5052637;28;20221;-82
2022/11/19 04:58:26;;;;;;;2.83;1.33;;;;;;;7.87;86.03;94769.31;5051908;28;20273;-81
2022/11/19 05:00:53;;;;;;;1.40;1.00;;;;;;;7.96;85.64;94770.00;5053315;28;20193;-82
2022/11/19 05:03:19;;;;;;;2.03;1.37;;;;;;;8.00;85.39;94771.22;5053162;28;20592;-81
2022/11/19 05:05:46;;;;;;;1.97;1.00;;;;;;;8.01;85.33;94777.94;5052677;28;20218;-82
2022/11/19 05:08:13;;;;;;;1.50;1.20;;;;;;;8.03;85.59;94778.56;5051652;28;20672;-82
2022/11/19 05:10:39;;;;;;;1.30;1.20;;;;;;;7.99;86.13;94772.19;5052599;28;20201;-82
2022/11/19 05:13:06;;;;;;;1.40;1.10;;;;;;;7.94;87.18;94771.94;5052828;28;20201;-82
2022/11/19 05:15:33;;;;;;;1.87;1.17;;;;;;;7.83;88.68;94778.34;5050084;28;20197;-82
2022/11/19 05:18:00;;;;;;;2.27;1.40;;;;;;;7.85;88.96;94778.94;5051639;28;20201;-81
2022/11/19 05:20:26;;;;;;;3.27;1.30;;;;;;;7.80;89.46;94783.00;5052481;28;20194;-82
2022/11/19 05:22:53;;;;;;;2.07;1.40;;;;;;;7.75;90.24;94783.53;5051662;28;20235;-82
2022/11/19 05:25:19;;;;;;;1.40;1.30;;;;;;;7.65;90.81;94779.69;5051823;28;20723;-81
2022/11/19 05:27:46;;;;;;;1.87;1.27;;;;;;;7.72;91.33;94778.75;5051802;28;20213;-81
2022/11/19 05:30:13;;;;;;;1.63;1.23;;;;;;;7.75;91.53;94770.72;5051390;28;20204;-82
2022/11/19 05:32:41;;;;;;;1.43;1.10;;;;;;;7.76;91.44;94789.47;5052224;28;20198;-83
2022/11/19 05:35:08;;;;;;;1.20;1.10;;;;;;;7.76;91.04;94779.22;5052087;28;20200;-82
2022/11/19 05:37:35;;;;;;;1.20;1.10;;;;;;;7.77;91.00;94789.28;5051343;28;20240;-82
2022/11/19 05:40:01;;;;;;;1.47;1.17;;;;;;;7.78;90.89;94780.63;5051787;28;20563;-82
2022/11/19 05:42:28;;;;;;;1.33;1.10;;;;;;;7.80;91.23;94778.69;5048066;28;20217;-82
2022/11/19 05:44:54;;;;;;;1.50;1.23;;;;;;;7.77;91.04;94771.34;5043887;28;20214;-81
2022/11/19 05:47:20;;;;;;;1.13;1.03;;;;;;;7.82;91.18;94766.50;5047845;28;20217;-81
2022/11/19 05:49:48;;;;;;;1.37;1.27;;;;;;;7.82;90.75;94769.06;5051525;28;20194;-82
2022/11/19 05:52:15;;;;;;;2.80;1.50;;;;;;;7.86;90.96;94772.84;5042372;28;20193;-81
2022/11/19 05:54:41;;;;;;;2.40;1.47;;;;;;;7.79;91.05;94777.09;5051625;28;20178;-81
2022/11/19 05:57:08;;;;;;;1.63;1.50;;;;;;;7.74;91.37;94770.91;5052308;28;20217;-82
2022/11/19 05:59:34;;;;;;;1.50;1.40;;;;;;;7.71;91.45;94772.06;5051631;28;20193;-82
2022/11/19 06:02:01;;;;;;;2.20;1.40;;;;;;;7.64;92.44;94766.06;5051805;28;20217;-81
2022/11/19 06:04:27;;;;;;;1.73;1.40;;;;;;;7.58;92.42;94764.22;5051486;28;20213;-82
2022/11/19 06:06:55;;;;;;;1.87;1.30;;;;;;;7.62;92.46;94770.56;5051508;28;20217;-82
2022/11/19 06:09:22;;;;;;;1.50;1.40;;;;;;;7.63;92.61;94775.53;5051501;28;20201;-82
2022/11/19 06:11:49;;;;;;;1.57;1.20;;;;;;;7.58;93.27;94775.25;5050936;28;20662;-81
2022/11/19 06:14:15;;;;;;;2.27;1.53;;;;;;;7.57;93.81;94767.75;5051298;28;20190;-81
2022/11/19 06:16:42;;;;;;;1.30;1.20;;;;;;;7.61;93.13;94776.66;5049994;28;20217;-80
2022/11/19 06:19:08;;;;;;;1.67;1.40;;;;;;;7.59;93.22;94784.53;5049614;28;20205;-81
2022/11/19 06:21:35;;;;;;;2.03;1.33;;;;;;;7.65;92.51;94783.03;5046813;28;20209;-81
2022/11/19 06:24:03;;;;;;;1.80;1.10;;;;;;;7.66;92.21;94783.81;5051422;28;20198;-82
2022/11/19 06:26:30;;;;;;;1.20;1.10;;;;;;;7.66;92.32;94786.38;5050104;28;20217;-82
2022/11/19 06:28:56;;;;;;;1.40;1.30;;;;;;;7.62;91.78;94786.75;5051153;28;20209;-81
2022/11/19 06:31:23;;;;;;;1.43;1.30;;;;;;;7.60;91.97;94793.00;5050986;28;20197;-82
2022/11/19 06:33:52;;;;;;;2.07;1.20;;;;;;;7.60;92.63;94786.13;5051155;28;20340;-82
2022/11/19 06:36:18;;;;;;;1.27;1.17;;;;;;;7.66;92.18;94796.63;5051465;28;20213;-82
2022/11/19 06:38:45;;;;;;;1.53;1.20;;;;;;;7.65;91.74;94800.97;5050036;28;20204;-81
2022/11/19 06:41:13;;;;;;;2.70;1.20;;;;;;;7.62;92.19;94802.13;5047028;28;20197;-83
2022/11/19 06:43:39;;;;;;;1.40;1.30;;;;;;;7.59;92.46;94806.78;5042284;28;20198;-83
2022/11/19 06:46:06;;;;;;;1.37;1.20;;;;;;;7.57;92.40;94808.72;5050251;28;20225;-81
2022/11/19 06:48:33;;;;;;;2.13;1.10;;;;;;;7.68;92.24;94810.88;5049778;28;20221;-81
2022/11/19 06:51:00;;;;;;;1.27;1.10;;;;;;;7.82;91.40;94817.75;5050653;28;20211;-84
2022/11/19 06:53:26;;;;;;;1.43;1.10;;;;;;;7.88;90.64;94814.47;5050300;28;20275;-82
2022/11/19 06:55:56;;;;;;;1.10;1.00;;;;;;;7.95;90.48;94810.19;5050108;28;20233;-81
2022/11/19 06:58:26;;;;;;;1.30;1.20;;;;;;;8.03;90.22;94817.00;5050729;28;20200;-82
2022/11/19 07:00:53;;;;;;;1.30;1.20;;;;;;;8.08;89.68;94816.47;5049793;28;20200;-81
2022/11/19 07:03:19;;;;;;;1.33;1.10;;;;;;;8.11;88.84;94822.00;5041263;28;20197;-81
2022/11/19 07:05:47;;;;;;;1.50;1.13;;;;;;;8.15;88.80;94815.56;5048500;28;20229;-82
2022/11/19 07:08:14;;;;;;;1.30;1.20;;;;;;;8.12;88.67;94817.69;5050404;28;20224;-82
2022/11/19 07:10:40;;;;;;;1.10;1.00;;;;;;;8.12;88.98;94815.91;5050035;28;20200;-80
2022/11/19 07:13:07;;;;;;;1.40;1.03;;;;;;;8.16;88.76;94818.91;5049835;28;20688;-82
2022/11/19 07:15:34;;;;;;;2.43;1.23;;;;;;;8.18;88.60;94819.53;5049528;28;20194;-82
2022/11/19 07:18:01;;;;;;;1.20;1.10;;;;;;;8.16;88.97;94822.28;5048856;28;20202;-82
2022/11/19 07:20:28;;;;;;;2.80;1.13;;;;;;;8.16;88.75;94814.59;5050618;28;20197;-80
2022/11/19 07:22:55;;;;;;;2.50;1.10;;;;;;;8.17;88.96;94823.06;5049672;28;20592;-82
2022/11/19 07:25:21;;;;;;;1.50;1.20;;;;;;;8.18;89.10;94838.28;5050355;28;20221;-83
2022/11/19 07:27:48;;;;;;;1.57;1.30;;;;;;;8.15;89.09;94837.84;5048688;28;20213;-82
2022/11/19 07:30:15;;;;;;;2.20;1.60;;;;;;;8.21;89.43;94839.69;5049526;28;20197;-80
2022/11/19 07:32:43;;;;;;;2.33;1.50;;;;;;;8.24;89.22;94839.34;5050097;28;20913;-83
2022/11/19 07:35:10;;;;;;;1.23;1.13;;;;;;;8.34;89.38;94839.06;5046740;28;20543;-81
2022/11/19 07:37:37;;;;;;;1.53;1.43;;;;;;;8.32;88.93;94845.16;5045060;28;20240;-83
2022/11/19 07:40:04;;;;;;;2.57;1.40;;;;;;;8.44;88.70;94842.16;5054109;28;20209;-82
2022/11/19 07:42:48;;;;;;;1.60;1.40;;;;;;;8.47;88.40;94837.44;5052796;28;20215;-83
2022/11/19 07:45:15;;;;;;;1.30;1.20;;;;;;;8.49;88.03;94842.38;5036927;28;20205;-80
2022/11/19 07:47:43;;;;;;;1.30;1.20;;;;;;;8.45;87.97;94843.75;5052237;28;20213;-82
2022/11/19 07:50:09;;;;;;;1.93;1.50;;;;;;;8.57;88.30;94847.41;5055030;28;20597;-81
2022/11/19 07:52:36;;;;;;;2.23;1.70;;;;;;;8.83;98.01;94846.88;5049195;28;20202;-81
2022/11/19 07:55:02;;;;;;;2.20;1.60;;;;;;;8.99;92.50;94839.72;5053277;28;20194;-80
2022/11/19 07:57:29;;;;;;;1.60;1.50;;;;;;;9.22;92.75;94854.13;5053520;28;20223;-81
2022/11/19 07:59:55;;;;;;;1.40;1.30;;;;;;;9.18;86.03;94850.34;5054175;28;20204;-82
2022/11/19 08:02:22;;;;;;;1.30;1.20;;;;;;;9.03;84.82;94840.16;5053759;28;20201;-83
2022/11/19 08:04:50;;;;;;;1.33;1.23;;;;;;;8.92;85.38;94854.25;5048390;28;20225;-82
2022/11/19 08:07:16;;;;;;;1.40;1.20;;;;;;;8.86;86.38;94860.13;5053807;28;21018;-83
2022/11/19 08:09:43;;;;;;;1.97;1.30;;;;;;;8.89;86.39;94849.50;5053366;28;20194;-82
2022/11/19 08:12:09;;;;;;;1.47;1.37;;;;;;;8.98;86.31;94853.53;5053555;28;20202;-83
2022/11/19 08:14:36;;;;;;;1.40;1.20;;;;;;;8.98;85.55;94856.09;5052977;28;20201;-83
2022/11/19 08:19:46;;;;;;;1.30;1.20;;;;;;;8.94;85.80;94867.72;5052923;28;20235;-81
2022/11/19 08:22:14;;;;;;;2.93;1.40;;;;;;;8.96;85.40;94860.63;5052631;28;20201;-82
2022/11/19 08:24:40;;;;;;;2.00;1.40;;;;;;;8.92;84.97;94861.16;5052876;28;20197;-83
2022/11/19 08:27:07;;;;;;;1.33;1.20;;;;;;;8.92;85.07;94867.09;5053451;28;20213;-82
2022/11/19 08:29:33;;;;;;;1.30;1.20;;;;;;;8.91;84.70;94864.72;5051089;28;20194;-82
2022/11/19 08:32:00;;;;;;;1.37;1.23;;;;;;;8.89;84.73;94861.53;5046435;28;20193;-81
2022/11/19 08:34:26;;;;;;;1.73;1.23;;;;;;;8.93;85.25;94858.41;5050562;28;20206;-81
2022/11/19 08:36:53;;;;;;;1.30;1.20;;;;;;;9.08;85.01;94858.34;5052657;28;20226;-83
2022/11/19 08:39:20;;;;;;;1.30;1.20;;;;;;;9.06;84.57;94862.88;5053121;28;20209;-82
2022/11/19 08:44:31;;;;;;;3.50;1.33;;;;;;;9.03;84.14;94852.97;5052909;28;20225;-82
2022/11/19 08:46:57;;;;;;;1.87;1.17;;;;;;;8.95;84.09;94859.03;5052645;28;20221;-82
2022/11/19 08:49:24;;;;;;;2.03;1.40;;;;;;;8.96;84.23;94855.47;5051971;28;20565;-81
2022/11/19 08:51:50;;;;;;;1.47;1.00;;;;;;;9.07;84.04;94858.53;5034868;28;20201;-82
2022/11/19 08:54:16;;;;;;;1.53;1.30;;;;;;;9.11;83.69;94857.97;5051626;28;20212;-83
2022/11/19 08:56:44;;;;;;;1.40;1.30;;;;;;;9.11;83.23;94857.97;5052927;28;20244;-81
2022/11/19 08:59:11;;;;;;;1.33;1.23;;;;;;;9.09;83.15;94867.63;5043016;28;20202;-82
2022/11/19 09:01:37;;;;;;;1.53;1.20;;;;;;;9.28;83.41;94858.50;5033225;28;20212;-81
2022/11/19 09:04:04;;;;;;;1.50;1.40;;;;;;;9.47;83.42;94862.19;5032243;28;20210;-82
2022/11/19 09:06:30;;;;;;;1.77;1.20;;;;;;;9.65;82.69;94859.94;5032597;28;20254;-81
2022/11/19 09:08:57;;;;;;;1.20;1.10;;;;;;;9.62;81.87;94865.47;5037155;28;20870;-83
2022/11/19 09:11:24;;;;;;;1.27;1.17;;;;;;;9.73;80.67;94866.72;5052234;28;20255;-81
2022/11/19 09:13:52;;;;;;;1.33;1.23;;;;;;;9.66;79.52;94867.47;5052308;28;20206;-83
2022/11/19 09:16:18;;;;;;;1.40;1.30;;;;;;;9.57;79.32;94863.47;5051594;28;20214;-82
2022/11/19 09:18:45;;;;;;;1.63;1.30;;;;;;;9.56;80.19;94873.94;5051925;28;20579;-83
2022/11/19 09:21:12;;;;;;;1.30;1.20;;;;;;;9.60;80.20;94878.50;5049515;28;20668;-82
2022/11/19 09:23:40;;;;;;;1.30;1.20;;;;;;;9.57;79.33;94872.94;5049301;28;20197;-82
2022/11/19 09:26:08;;;;;;;1.23;1.00;;;;;;;9.64;78.73;94882.28;5049294;28;20240;-82
2022/11/19 09:28:35;;;;;;;2.73;1.03;;;;;;;9.80;78.62;94881.22;5039362;28;20218;-82
2022/11/19 09:31:06;;;;;;;1.10;1.00;;;;;;;10.14;77.72;94872.69;5032111;28;20205;-82
2022/11/19 09:33:35;;;;;;;1.30;1.20;;;;;;;10.44;76.90;94886.09;5034684;28;20205;-81
2022/11/19 09:36:02;;;;;;;3.80;1.17;;;;;;;10.46;75.34;94881.53;5051637;28;20606;-81
2022/11/19 09:38:30;;;;;;;1.47;1.23;;;;;;;10.54;74.90;94893.47;5051475;28;20695;-83
2022/11/19 09:40:59;;;;;;;1.17;1.10;;;;;;;10.38;73.14;94894.59;5051679;28;20201;-83
2022/11/19 09:43:40;;;;;;;1.10;1.00;;;;;;;10.15;73.02;94894.06;5051648;28;20215;-81
2022/11/19 09:46:14;;;;;;;1.30;1.10;;;;;;;10.02;73.65;94897.34;5051388;28;20236;-81
2022/11/19 09:48:41;;;;;;;1.30;1.07;;;;;;;10.02;74.01;94895.56;5051382;28;20335;-82
2022/11/19 09:51:12;;;;;;;1.40;1.30;;;;;;;9.93;73.09;94894.13;5051293;28;20212;-81
2022/11/19 09:53:45;;;;;;;1.80;1.43;;;;;;;10.22;83.58;94898.25;5041271;28;20213;-87
2022/11/19 09:56:17;;;;;;;1.97;1.40;;;;;;;10.56;80.84;94904.34;5049079;28;20225;-87
2022/11/19 09:58:45;;;;;;;1.77;1.00;;;;;;;10.54;71.48;94899.41;5050590;28;20190;-82
2022/11/19 10:01:16;;;;;;;1.30;1.20;;;;;;;10.30;71.17;94897.31;5051014;28;20671;-84
2022/11/19 10:03:47;;;;;;;1.97;1.47;;;;;;;10.31;72.77;94907.44;5052662;28;20188;-83
2022/11/19 10:06:25;;;;;;;1.90;1.13;;;;;;;10.11;72.31;94905.72;5051429;28;20622;-82
2022/11/19 10:09:05;;;;;;;1.60;1.33;;;;;;;9.85;72.34;94893.47;5051360;28;20194;-82
2022/11/19 10:11:44;;;;;;;2.13;1.10;;;;;;;9.68;73.17;94903.25;5052367;28;20190;-82
2022/11/19 10:14:21;;;;;;;1.20;1.10;;;;;;;9.74;83.84;94910.22;5044292;28;20190;-82
2022/11/19 10:16:57;;;;;;;1.30;1.20;;;;;;;10.10;78.85;94898.97;5052923;28;20220;-84
2022/11/19 10:19:38;;;;;;;3.03;1.20;;;;;;;10.08;73.04;94904.31;5050554;28;20197;-82
2022/11/19 10:22:10;;;;;;;1.63;1.30;;;;;;;9.86;72.95;94901.00;5050457;28;20185;-82
2022/11/19 10:24:42;;;;;;;1.77;1.20;;;;;;;9.78;74.20;94903.75;5037548;28;20182;-82
2022/11/19 10:27:17;;;;;;;2.13;1.30;;;;;;;9.63;74.33;94896.09;5041252;28;20221;-81
2022/11/19 10:29:49;;;;;;;1.63;1.20;;;;;;;9.46;74.90;94897.38;5047770;28;20193;-80
2022/11/19 10:32:27;;;;;;;1.53;1.27;;;;;;;9.37;76.03;94900.28;5049887;28;20198;-82
2022/11/19 10:34:57;;;;;;;2.30;1.70;;;;;;;9.33;76.10;94885.22;5051237;28;20251;-82
2022/11/19 10:37:28;;;;;;;1.30;1.13;;;;;;;9.20;75.98;94897.97;5050996;28;20627;-84
2022/11/19 10:39:59;;;;;;;1.43;1.23;;;;;;;9.20;76.67;94890.25;5050393;28;20212;-80
2022/11/19 10:42:29;;;;;;;0.90;0.90;;;;;;;9.36;76.15;94891.78;5042695;28;20221;-82
2022/11/19 10:45:01;;;;;;;1.40;1.30;;;;;;;9.38;76.41;94886.44;5049491;28;20649;-82
2022/11/19 10:47:35;;;;;;;1.30;1.20;;;;;;;9.45;75.64;94892.41;5050015;28;20233;-80
2022/11/19 10:50:02;;;;;;;1.30;1.20;;;;;;;9.48;76.14;94894.63;5040828;28;20192;-81
2022/11/19 10:52:33;;;;;;;1.20;1.10;;;;;;;9.43;76.07;94892.59;5049998;28;20205;-82
2022/11/19 10:55:04;;;;;;;3.47;1.20;;;;;;;9.39;75.42;94888.03;5050141;28;20190;-81
2022/11/19 10:57:33;;;;;;;1.40;1.10;;;;;;;9.39;75.33;94876.00;5049912;28;20744;-82
2022/11/19 11:00:00;;;;;;;1.37;1.27;;;;;;;9.44;75.05;94880.53;5050433;28;20205;-82
2022/11/19 11:02:33;;;;;;;1.93;1.10;;;;;;;9.42;74.46;94882.53;5050511;28;20197;-82
2022/11/19 11:05:12;;;;;;;2.00;1.30;;;;;;;9.51;74.88;94883.97;5050599;28;20267;-80
2022/11/19 11:07:47;;;;;;;1.57;1.10;;;;;;;9.58;74.93;94875.34;5050005;28;20236;-82
2022/11/19 11:10:36;;;;;;;1.33;1.23;;;;;;;9.54;74.55;94866.41;5049385;28;20201;-81
2022/11/19 11:15:59;;;;;;;2.63;1.97;;;;;;;9.70;74.32;94865.31;5050268;28;20221;-82
2022/11/19 11:18:31;;;;;;;1.40;1.30;;;;;;;9.61;74.13;94859.53;5049835;28;20537;-83
2022/11/19 11:20:58;;;;;;;2.30;2.10;;;;;;;9.69;74.48;94864.53;5038729;28;20204;-82
2022/11/19 11:23:27;;;;;;;1.50;1.17;;;;;;;9.71;74.95;94869.47;5044768;28;20197;-81
2022/11/19 11:26:02;;;;;;;1.90;1.20;;;;;;;9.63;73.27;94870.41;5050455;28;20217;-82
2022/11/19 11:28:28;;;;;;;1.60;1.30;;;;;;;9.74;73.91;94869.09;5041250;28;20190;-82
2022/11/19 11:30:56;;;;;;;1.30;1.20;;;;;;;9.72;73.40;94873.63;5050196;28;20192;-82
2022/11/19 11:33:33;;;;;;;1.30;1.20;;;;;;;9.82;74.10;94865.56;5050169;28;20464;-82
2022/11/19 11:36:02;;;;;;;1.47;1.37;;;;;;;9.89;74.00;94866.41;5050281;28;20225;-82
2022/11/19 11:38:30;;;;;;;1.30;1.20;;;;;;;9.87;75.08;94863.25;5049129;28;20204;-81
2022/11/19 11:41:02;;;;;;;1.10;1.00;;;;;;;9.76;77.36;94876.63;5049688;28;20193;-83
2022/11/19 11:43:30;;;;;;;0.80;0.80;;;;;;;9.65;77.50;94871.03;5050378;28;20239;-82
2022/11/19 11:45:58;;;;;;;1.40;0.90;;;;;;;9.72;77.16;94865.94;5049479;28;20221;-82
2022/11/19 11:48:25;;;;;;;1.00;0.90;;;;;;;9.74;77.42;94869.09;5049710;28;20691;-82
2022/11/19 11:50:53;;;;;;;0.70;0.70;;;;;;;9.73;76.74;94864.94;5049723;28;20194;-81
2022/11/19 11:53:29;;;;;;;1.50;1.20;;;;;;;9.93;79.40;94862.50;5050376;28;20208;-83
2022/11/19 11:55:57;;;;;;;18.27;12.07;;;;;;;10.52;85.38;94847.31;5045136;28;20634;-84
2022/11/19 11:58:27;;;;;;;9.30;6.90;;;;;;;10.70;73.36;94855.28;5051114;28;20201;-81
2022/11/19 12:00:55;;;;;;;11.57;10.37;;;;;;;11.04;71.53;94844.03;5048402;28;20672;-82
2022/11/19 12:03:22;;;;;;;3.90;1.53;;;;;;;11.24;71.06;94841.47;5050112;28;20198;-82
2022/11/19 12:06:02;;;;;;;2.60;1.40;;;;;;;11.47;69.88;94835.13;5049830;28;20228;-81
2022/11/19 12:08:43;;;;;;;1.33;1.00;;;;;;;11.55;69.11;94827.94;5050062;28;20219;-82
2022/11/19 12:11:19;;;;;;;1.20;1.00;;;;;;;11.64;69.11;94836.28;5042130;28;20198;-81
2022/11/19 12:13:54;;;;;;;1.87;1.30;;;;;;;11.69;67.89;94832.13;5050352;28;20193;-81